Terminal Aerodrome Forecast
Issued by NWS

Home | Current Version | Previous Version | Text Only | Print | Product List | Glossary On
Versions: 1 2 3 4 5 6 7 8 9 10 11 12
329
FTUS45 KRIW 191125
TAFCOD
TAF
KCOD 191125Z 1912/2012 21006KT P6SM SKC
     FM191800 03008KT P6SM SCT090 BKN200
     FM200100 32007KT P6SM SCT080 BKN150
     FM200600 21006KT P6SM FEW100 SCT200
      AMD LTD TO CLD VIS AND WIND=

USA.gov is the U.S. government's official web portal to all federal, state and local government web resources and services.